Time;durP1;ratioP1;P1;durP2;ratioP2;P2;SDS_P1;SDS_P2;PMS_P1;PMS_P2;Temp;Humidity;BMP_temperature;BMP_pressure;BME280_temperature;BME280_humidity;BME280_pressure;Samples;Min_cycle;Max_cycle;Signal;HPM_P1;HPM_P2
2023/05/22 00:00:09;;;;;;;19.23;16.40;;;18.80;99.90;;;;;;5116071;27;20054;-65
2023/05/22 00:02:41;;;;;;;20.73;16.77;;;18.70;99.90;;;;;;5134406;27;20051;-62
2023/05/22 00:05:09;;;;;;;24.70;18.05;;;18.90;99.90;;;;;;5115732;27;20321;-65
2023/05/22 00:07:36;;;;;;;22.08;16.80;;;18.70;99.90;;;;;;5115934;27;20066;-62
2023/05/22 00:10:03;;;;;;;20.02;16.77;;;18.90;99.90;;;;;;5115775;27;20115;-63
2023/05/22 00:12:30;;;;;;;16.88;14.20;;;18.70;99.90;;;;;;5134001;27;20039;-63
2023/05/22 00:14:56;;;;;;;16.05;12.57;;;18.60;99.90;;;;;;5115809;27;20047;-63
2023/05/22 00:17:23;;;;;;;11.95;9.80;;;18.60;99.90;;;;;;5133973;27;20043;-63
2023/05/22 00:19:50;;;;;;;14.05;10.60;;;18.60;99.90;;;;;;5115537;27;20051;-63
2023/05/22 00:22:16;;;;;;;11.90;9.73;;;18.60;99.90;;;;;;5115904;27;20054;-62
2023/05/22 00:24:42;;;;;;;12.02;10.77;;;18.60;99.90;;;;;;5133474;27;20066;-64
2023/05/22 00:27:09;;;;;;;13.43;11.38;;;18.70;99.90;;;;;;5115808;27;20352;-66
2023/05/22 00:29:35;;;;;;;14.25;10.68;;;18.60;99.90;;;;;;5114983;27;20364;-64
2023/05/22 00:32:02;;;;;;;11.82;10.32;;;18.50;99.90;;;;;;5115897;27;20058;-64
2023/05/22 00:34:28;;;;;;;12.70;10.85;;;18.60;99.90;;;;;;5115310;27;20043;-63
2023/05/22 00:36:54;;;;;;;13.02;11.68;;;18.50;99.90;;;;;;5115356;27;20043;-62
2023/05/22 00:39:20;;;;;;;11.43;10.07;;;18.60;99.90;;;;;;5115317;27;20104;-65
2023/05/22 00:41:47;;;;;;;12.82;10.25;;;18.60;99.90;;;;;;5115166;27;20467;-65
2023/05/22 00:44:13;;;;;;;11.90;10.65;;;18.50;99.90;;;;;;5098134;27;20043;-63
2023/05/22 00:46:39;;;;;;;12.20;10.85;;;18.50;99.90;;;;;;5115447;27;20047;-63
2023/05/22 00:49:06;;;;;;;12.02;10.82;;;18.50;99.90;;;;;;5114173;27;20051;-62
2023/05/22 00:51:32;;;;;;;12.60;10.25;;;18.50;99.90;;;;;;5114955;27;20058;-65
2023/05/22 00:53:59;;;;;;;13.65;11.50;;;18.40;99.90;;;;;;5114890;27;20058;-64
2023/05/22 00:56:25;;;;;;;14.35;11.65;;;18.50;99.90;;;;;;5114917;27;20049;-64
2023/05/22 00:58:52;;;;;;;14.85;13.25;;;18.40;99.90;;;;;;5115121;27;20421;-63
2023/05/22 01:01:19;;;;;;;13.07;11.40;;;18.40;99.90;;;;;;5114907;28;20043;-66
2023/05/22 01:03:45;;;;;;;13.38;11.98;;;18.60;99.90;;;;;;5114638;28;20382;-64
2023/05/22 01:06:13;;;;;;;14.15;12.23;;;18.40;99.90;;;;;;5115068;28;20059;-63
2023/05/22 01:08:40;;;;;;;14.02;12.52;;;18.40;99.90;;;;;;5114858;28;20050;-65
2023/05/22 01:11:15;;;;;;;13.93;12.32;;;18.30;99.90;;;;;;5115100;28;20051;-64
2023/05/22 01:14:09;;;;;;;15.90;12.77;;;18.30;99.90;;;;;;5115024;28;20051;-63
2023/05/22 01:16:48;;;;;;;16.05;12.32;;;18.40;99.90;;;;;;5097853;28;20043;-66
2023/05/22 01:19:38;;;;;;;17.02;13.63;;;18.30;99.90;;;;;;5114720;28;20068;-64
2023/05/22 01:22:13;;;;;;;;;;;18.20;99.90;;;;;;5115056;28;20051;-63
2023/05/22 01:24:50;;;;;;;14.95;12.80;;;18.30;99.90;;;;;;5114795;28;19919;-64
2023/05/22 01:27:35;;;;;;;17.58;14.40;;;18.00;99.90;;;;;;5115040;28;20050;-65
2023/05/22 01:30:17;;;;;;;20.95;15.95;;;18.00;99.90;;;;;;5094097;28;20467;-64
2023/05/22 01:32:46;;;;;;;19.13;15.55;;;18.00;99.90;;;;;;5111287;28;20051;-64
2023/05/22 01:35:18;;;;;;;18.73;15.18;;;17.80;99.90;;;;;;5111228;28;20051;-64
2023/05/22 01:37:45;;;;;;;18.63;16.63;;;17.80;99.90;;;;;;5111345;28;20043;-63
2023/05/22 01:40:12;;;;;;;21.52;17.70;;;17.70;99.90;;;;;;5111183;28;20051;-64
2023/05/22 01:42:40;;;;;;;20.00;17.42;;;17.80;99.90;;;;;;5111531;28;20055;-65
2023/05/22 01:45:10;;;;;;;21.10;18.83;;;17.60;99.90;;;;;;5111025;28;20417;-63
2023/05/22 01:47:36;;;;;;;22.20;18.33;;;17.70;99.90;;;;;;5094525;28;20134;-62
2023/05/22 01:50:04;;;;;;;22.10;18.25;;;17.70;99.90;;;;;;5111090;28;20068;-64
2023/05/22 01:52:37;;;;;;;24.08;19.40;;;17.50;99.90;;;;;;5110942;28;20048;-65
2023/05/22 01:55:20;;;;;;;24.48;20.73;;;17.70;99.90;;;;;;5111164;28;20047;-64
2023/05/22 01:58:01;;;;;;;23.90;20.15;;;17.50;99.90;;;;;;5111294;28;20058;-64
2023/05/22 02:00:28;;;;;;;20.77;18.13;;;17.50;99.90;;;;;;5095050;28;20051;-65
2023/05/22 02:03:06;;;;;;;22.17;19.77;;;17.50;99.90;;;;;;5115426;28;20040;-64
2023/05/22 02:05:35;;;;;;;24.85;20.58;;;17.50;99.90;;;;;;5097605;28;20054;-64
2023/05/22 02:08:03;;;;;;;23.52;20.20;;;17.60;99.90;;;;;;5114963;28;20077;-64
2023/05/22 02:10:32;;;;;;;27.10;21.55;;;17.50;99.90;;;;;;5114759;28;20056;-63
2023/05/22 02:12:59;;;;;;;26.05;20.23;;;17.60;99.90;;;;;;5097721;28;20475;-65
2023/05/22 02:15:25;;;;;;;26.23;22.67;;;17.50;99.90;;;;;;5114362;28;20092;-63
2023/05/22 02:17:52;;;;;;;25.25;21.20;;;17.50;99.90;;;;;;5114671;28;20102;-63
2023/05/22 02:20:18;;;;;;;27.83;22.77;;;17.60;99.90;;;;;;5114096;28;20545;-64
2023/05/22 02:22:46;;;;;;;29.23;22.05;;;17.60;99.90;;;;;;5114424;28;20048;-63
2023/05/22 02:25:13;;;;;;;26.55;22.70;;;17.60;99.90;;;;;;5114459;28;20074;-66
2023/05/22 02:27:44;;;;;;;25.65;22.90;;;17.70;99.90;;;;;;5097504;28;20130;-63
2023/05/22 02:30:12;;;;;;;26.30;22.20;;;17.70;99.90;;;;;;5114236;28;20051;-66
2023/05/22 02:32:39;;;;;;;25.95;21.73;;;17.60;99.90;;;;;;5097602;28;20436;-63
2023/05/22 02:35:06;;;;;;;26.00;22.48;;;17.70;99.90;;;;;;5096761;28;20441;-64
2023/05/22 02:37:33;;;;;;;27.50;22.60;;;17.70;99.90;;;;;;5114353;28;20455;-64
2023/05/22 02:39:59;;;;;;;27.05;24.10;;;17.60;99.90;;;;;;5114034;28;20373;-64
2023/05/22 02:42:25;;;;;;;25.85;21.13;;;17.70;99.90;;;;;;5114019;28;20456;-64
2023/05/22 02:44:52;;;;;;;27.15;22.10;;;17.60;99.90;;;;;;5096735;28;20051;-64
2023/05/22 02:47:18;;;;;;;27.90;24.90;;;17.50;99.90;;;;;;5097436;28;20395;-64
2023/05/22 02:49:45;;;;;;;26.95;24.05;;;17.70;99.90;;;;;;5113842;28;20418;-62
2023/05/22 02:52:11;;;;;;;30.25;24.95;;;17.70;99.90;;;;;;5097029;28;20430;-65
2023/05/22 02:54:38;;;;;;;26.52;21.92;;;17.60;99.90;;;;;;5113842;28;20059;-64
2023/05/22 02:57:04;;;;;;;30.48;22.92;;;17.60;99.90;;;;;;5113822;28;20054;-64
2023/05/22 02:59:31;;;;;;;29.05;23.20;;;17.60;99.90;;;;;;5113748;28;20145;-64
2023/05/22 03:01:57;;;;;;;27.52;23.23;;;17.70;99.90;;;;;;5113944;28;20054;-63
2023/05/22 03:04:24;;;;;;;27.23;22.80;;;17.50;99.90;;;;;;5113327;28;20051;-64
2023/05/22 03:06:50;;;;;;;28.45;22.77;;;17.50;99.90;;;;;;5113867;28;20048;-65
2023/05/22 03:09:19;;;;;;;28.20;23.30;;;17.60;99.90;;;;;;5113737;28;20051;-63
2023/05/22 03:11:45;;;;;;;28.40;23.70;;;17.50;99.90;;;;;;5112824;28;20048;-64
2023/05/22 03:14:11;;;;;;;25.83;21.80;;;17.50;99.90;;;;;;5113330;28;20052;-64
2023/05/22 03:16:37;;;;;;;28.67;22.75;;;17.40;99.90;;;;;;5113705;28;20044;-63
2023/05/22 03:19:09;;;;;;;31.05;24.67;;;17.50;99.90;;;;;;5113424;28;20039;-63
2023/05/22 03:21:35;;;;;;;30.17;24.38;;;17.40;99.90;;;;;;5113668;28;20047;-65
2023/05/22 03:24:02;;;;;;;27.98;24.02;;;17.30;99.90;;;;;;5113326;28;20055;-63
2023/05/22 03:26:28;;;;;;;28.58;25.50;;;17.40;99.90;;;;;;5096416;28;20412;-63
2023/05/22 03:28:55;;;;;;;29.92;24.10;;;17.30;99.90;;;;;;5112784;28;20035;-63
2023/05/22 03:31:27;;;;;;;26.67;23.10;;;17.50;99.90;;;;;;5113485;28;20341;-63
2023/05/22 03:33:53;;;;;;;;;;;17.50;99.90;;;;;;5113708;28;20336;-65
2023/05/22 03:36:20;;;;;;;29.10;24.60;;;17.30;99.90;;;;;;5095995;28;20297;-66
2023/05/22 03:38:46;;;;;;;30.17;23.90;;;17.50;99.90;;;;;;5113247;28;20055;-64
2023/05/22 03:41:13;;;;;;;30.73;25.15;;;17.40;99.90;;;;;;5112979;28;20486;-64
2023/05/22 03:43:39;;;;;;;30.08;25.17;;;17.40;99.90;;;;;;5113153;28;20426;-64
2023/05/22 03:46:05;;;;;;;26.50;23.00;;;17.60;99.90;;;;;;5096068;28;20433;-63
2023/05/22 03:48:33;;;;;;;28.23;23.38;;;17.40;99.90;;;;;;5112830;28;20785;-63
2023/05/22 03:50:59;;;;;;;28.60;25.30;;;17.60;99.90;;;;;;5112486;28;20348;-65
2023/05/22 03:53:26;;;;;;;27.48;24.13;;;17.50;99.90;;;;;;5112943;28;20379;-63
2023/05/22 03:55:52;;;;;;;30.67;23.83;;;17.40;99.90;;;;;;5112586;28;20051;-63
2023/05/22 03:58:18;;;;;;;28.83;23.20;;;17.50;99.90;;;;;;5095725;28;20051;-63
2023/05/22 04:00:45;;;;;;;26.17;23.08;;;17.60;99.90;;;;;;5112566;28;20482;-63
2023/05/22 04:03:18;;;;;;;29.95;23.40;;;17.40;99.90;;;;;;5112566;28;20051;-65
2023/05/22 04:05:45;;;;;;;29.20;25.48;;;17.40;99.90;;;;;;5112760;28;20059;-64
2023/05/22 04:08:11;;;;;;;30.73;24.13;;;17.50;99.90;;;;;;5112818;28;20052;-65
2023/05/22 04:10:37;;;;;;;29.85;25.23;;;17.40;99.90;;;;;;5112501;28;20052;-63
2023/05/22 04:13:04;;;;;;;30.33;24.77;;;17.50;99.90;;;;;;5112972;28;20039;-66
2023/05/22 04:15:34;;;;;;;32.83;25.35;;;17.40;99.90;;;;;;5112404;28;20052;-64
2023/05/22 04:18:00;;;;;;;31.85;26.25;;;17.50;99.90;;;;;;5112900;28;20433;-65
2023/05/22 04:20:26;;;;;;;31.20;26.23;;;17.60;99.90;;;;;;5112384;28;20073;-63
2023/05/22 04:22:56;;;;;;;31.58;27.55;;;17.50;99.90;;;;;;5095482;28;20329;-64
2023/05/22 04:25:22;;;;;;;30.58;26.60;;;17.50;99.90;;;;;;5112071;28;20208;-64
2023/05/22 04:27:49;;;;;;;30.88;26.80;;;17.50;99.90;;;;;;5112494;28;20047;-64
2023/05/22 04:30:16;;;;;;;32.33;25.70;;;17.50;99.90;;;;;;5112057;28;20058;-63
2023/05/22 04:32:43;;;;;;;32.90;25.98;;;17.40;99.90;;;;;;5112338;28;20047;-66
2023/05/22 04:35:11;;;;;;;30.38;25.27;;;17.50;99.90;;;;;;5111902;28;20052;-65
2023/05/22 04:37:41;;;;;;;30.48;26.65;;;17.20;99.90;;;;;;5112160;28;20044;-63
2023/05/22 04:40:08;;;;;;;33.08;25.52;;;17.40;99.90;;;;;;5095305;28;20100;-63
2023/05/22 04:42:36;;;;;;;31.75;27.17;;;17.40;99.90;;;;;;5112101;28;20043;-64
2023/05/22 04:45:03;;;;;;;33.08;26.25;;;17.30;99.90;;;;;;5095077;28;20459;-63
2023/05/22 04:47:30;;;;;;;34.05;26.55;;;17.30;99.90;;;;;;5112261;28;20475;-63
2023/05/22 04:49:57;;;;;;;32.90;26.63;;;17.20;99.90;;;;;;5095078;28;20059;-63
2023/05/22 04:52:23;;;;;;;33.22;25.90;;;17.20;99.90;;;;;;5113340;28;20057;-66
2023/05/22 04:54:51;;;;;;;33.28;26.88;;;17.30;99.90;;;;;;5111871;28;20047;-66
2023/05/22 04:57:18;;;;;;;33.75;27.30;;;17.30;99.90;;;;;;5094906;28;20051;-63
2023/05/22 04:59:44;;;;;;;32.88;27.45;;;17.30;99.90;;;;;;5091505;28;20055;-64
2023/05/22 05:02:10;;;;;;;34.33;26.65;;;17.40;99.90;;;;;;5074757;28;20044;-65
2023/05/22 05:04:37;;;;;;;32.45;28.02;;;17.40;99.90;;;;;;5074638;28;20147;-65
2023/05/22 05:07:04;;;;;;;35.67;28.25;;;17.40;99.90;;;;;;5107433;28;20129;-64
2023/05/22 05:09:31;;;;;;;35.58;27.88;;;17.40;99.90;;;;;;5110883;28;20044;-66
2023/05/22 05:11:57;;;;;;;33.17;29.05;;;17.20;99.90;;;;;;5111381;28;20077;-64
2023/05/22 05:14:24;;;;;;;36.33;28.58;;;17.40;99.90;;;;;;5110867;28;20051;-65
2023/05/22 05:16:51;;;;;;;35.28;29.45;;;17.30;99.90;;;;;;5110455;28;20040;-66
2023/05/22 05:19:20;;;;;;;35.67;29.48;;;17.20;99.90;;;;;;5112505;28;20047;-64
2023/05/22 05:21:48;;;;;;;35.65;29.70;;;17.10;99.90;;;;;;5094482;28;20047;-63
2023/05/22 05:24:16;;;;;;;35.00;27.98;;;17.30;99.90;;;;;;5114682;28;20058;-63
2023/05/22 05:26:43;;;;;;;33.70;28.10;;;17.20;99.90;;;;;;5115083;28;20053;-65
2023/05/22 05:29:10;;;;;;;34.20;29.08;;;17.10;99.90;;;;;;5095136;28;20051;-63
2023/05/22 05:31:36;;;;;;;36.60;31.52;;;17.10;99.90;;;;;;5078203;28;20368;-65
2023/05/22 05:34:02;;;;;;;35.63;29.83;;;17.20;99.90;;;;;;5111374;28;20270;-66
2023/05/22 05:36:29;;;;;;;34.42;29.77;;;17.10;99.90;;;;;;5113973;28;20383;-65
2023/05/22 05:38:57;;;;;;;35.05;28.95;;;17.30;99.90;;;;;;5114941;28;20043;-64
2023/05/22 05:41:26;;;;;;;35.53;27.30;;;17.10;99.90;;;;;;5098655;28;20062;-64
2023/05/22 05:43:52;;;;;;;35.30;29.23;;;17.30;99.90;;;;;;5098164;28;20439;-66
2023/05/22 05:46:19;;;;;;;34.83;28.35;;;17.20;99.90;;;;;;5098538;28;20070;-63
2023/05/22 05:48:45;;;;;;;33.53;28.30;;;17.30;99.90;;;;;;5098307;28;20055;-64
2023/05/22 05:51:11;;;;;;;31.35;27.02;;;17.40;99.90;;;;;;5117566;27;20066;-64
2023/05/22 05:53:39;;;;;;;38.22;28.23;;;17.50;99.90;;;;;;5118650;27;20047;-64
2023/05/22 05:56:07;;;;;;;33.50;27.98;;;17.50;99.90;;;;;;5118750;27;20050;-63
2023/05/22 05:58:33;;;;;;;32.30;27.98;;;17.60;99.90;;;;;;5116733;27;20382;-64
2023/05/22 06:00:59;;;;;;;34.78;27.63;;;17.60;99.90;;;;;;5098482;28;20051;-65
2023/05/22 06:03:26;;;;;;;33.97;28.05;;;17.80;99.90;;;;;;5116390;28;20120;-65
2023/05/22 06:05:52;;;;;;;32.97;27.30;;;17.70;99.90;;;;;;5097431;28;20039;-66
2023/05/22 06:08:20;;;;;;;30.25;26.20;;;17.90;99.90;;;;;;5098418;28;20063;-65
2023/05/22 06:10:47;;;;;;;36.70;28.08;;;17.90;99.90;;;;;;5110236;28;20048;-63
2023/05/22 06:13:13;;;;;;;34.90;27.15;;;18.10;99.90;;;;;;5115454;28;20094;-66
2023/05/22 06:15:40;;;;;;;32.33;26.20;;;18.20;99.90;;;;;;5115153;28;20062;-64
2023/05/22 06:18:06;;;;;;;29.73;26.13;;;18.20;99.90;;;;;;5114980;28;20101;-65
2023/05/22 06:20:32;;;;;;;30.27;26.50;;;18.30;99.90;;;;;;5102706;28;20047;-65
2023/05/22 06:22:58;;;;;;;30.25;26.92;;;18.20;99.90;;;;;;5098288;28;20058;-63
2023/05/22 06:25:28;;;;;;;31.63;27.65;;;18.40;99.90;;;;;;5080519;28;20044;-65
2023/05/22 06:27:55;;;;;;;34.10;27.20;;;18.20;99.90;;;;;;5098485;28;20051;-65
2023/05/22 06:30:21;;;;;;;31.73;27.25;;;18.30;99.90;;;;;;5088539;28;20079;-64
2023/05/22 06:32:48;;;;;;;30.73;26.13;;;18.40;99.90;;;;;;5082159;28;20052;-64
2023/05/22 06:35:14;;;;;;;28.83;25.73;;;18.60;99.90;;;;;;5095219;28;20364;-65
2023/05/22 06:37:41;;;;;;;32.40;26.38;;;18.70;99.90;;;;;;5084573;28;20056;-64
2023/05/22 06:40:09;;;;;;;30.20;24.25;;;18.80;99.90;;;;;;5106117;27;20050;-64
2023/05/22 06:42:35;;;;;;;30.30;26.48;;;19.00;99.90;;;;;;5097121;28;20049;-65
2023/05/22 06:45:01;;;;;;;29.00;25.90;;;19.00;99.90;;;;;;5091374;28;20489;-64
2023/05/22 06:47:28;;;;;;;28.55;24.55;;;19.00;99.90;;;;;;5076988;28;20055;-63
2023/05/22 06:49:54;;;;;;;28.20;24.70;;;19.00;99.90;;;;;;5096514;27;20051;-65
2023/05/22 06:52:20;;;;;;;28.58;24.75;;;18.80;99.90;;;;;;5118077;27;20057;-64
2023/05/22 06:54:47;;;;;;;29.10;23.35;;;18.70;99.90;;;;;;5107330;27;20050;-64
2023/05/22 06:57:13;;;;;;;28.17;24.55;;;18.70;99.90;;;;;;5112457;27;20043;-66
2023/05/22 06:59:39;;;;;;;28.92;22.70;;;18.80;99.90;;;;;;5114235;27;20039;-65
2023/05/22 07:02:06;;;;;;;25.48;22.33;;;18.70;99.90;;;;;;5080122;28;20051;-65
2023/05/22 07:04:33;;;;;;;23.42;20.80;;;18.70;99.90;;;;;;5105005;27;20065;-64
2023/05/22 07:07:00;;;;;;;27.08;21.65;;;18.60;99.90;;;;;;5099968;27;20042;-63
2023/05/22 07:09:26;;;;;;;25.67;21.08;;;18.60;99.90;;;;;;5099826;27;20092;-64
2023/05/22 07:11:52;;;;;;;21.92;18.83;;;18.70;99.90;;;;;;5117448;27;20107;-64
2023/05/22 07:14:18;;;;;;;22.35;19.48;;;18.70;99.90;;;;;;5100425;27;20059;-65
2023/05/22 07:16:44;;;;;;;22.33;19.05;;;18.70;99.90;;;;;;5117064;27;20047;-64
2023/05/22 07:19:11;;;;;;;24.17;17.48;;;18.70;99.90;;;;;;5096680;27;20046;-63
2023/05/22 07:21:37;;;;;;;22.05;16.27;;;18.70;99.90;;;;;;5096735;28;20054;-65
2023/05/22 07:24:07;;;;;;;20.92;16.55;;;18.60;99.90;;;;;;5080201;28;20082;-66
2023/05/22 07:26:35;;;;;;;22.08;15.63;;;18.80;99.90;;;;;;5096533;28;20047;-65
2023/05/22 07:29:02;;;;;;;20.42;15.23;;;18.80;99.90;;;;;;5098475;27;20052;-65
2023/05/22 07:31:28;;;;;;;22.73;15.45;;;18.90;99.90;;;;;;5097981;28;20112;-64
2023/05/22 07:33:55;;;;;;;19.52;15.32;;;19.10;99.90;;;;;;5096716;28;20057;-64
2023/05/22 07:36:21;;;;;;;18.40;16.40;;;19.20;99.90;;;;;;5096547;28;20344;-64
2023/05/22 07:38:48;;;;;;;20.98;15.27;;;19.50;99.90;;;;;;5097076;28;20043;-64
2023/05/22 07:41:14;;;;;;;19.08;15.10;;;19.50;99.90;;;;;;5097190;28;20040;-65
2023/05/22 07:43:40;;;;;;;19.08;14.63;;;19.60;99.90;;;;;;5096658;28;20112;-64
2023/05/22 07:46:08;;;;;;;23.88;14.43;;;19.50;99.90;;;;;;5096665;28;20047;-66
2023/05/22 07:48:34;;;;;;;20.33;14.10;;;19.70;99.90;;;;;;5096288;28;20067;-65
2023/05/22 07:51:02;;;;;;;18.10;14.52;;;19.60;99.90;;;;;;5097588;27;20059;-63
2023/05/22 07:53:30;;;;;;;21.02;14.55;;;19.60;99.90;;;;;;5116746;27;20471;-63
2023/05/22 07:55:56;;;;;;;22.63;15.55;;;19.60;99.90;;;;;;5099526;27;20176;-65
2023/05/22 07:58:24;;;;;;;19.73;14.73;;;19.60;99.90;;;;;;5116362;27;20082;-64
2023/05/22 08:00:50;;;;;;;18.63;15.57;;;19.50;99.90;;;;;;5082499;28;20044;-64
2023/05/22 08:03:17;;;;;;;22.80;15.18;;;19.60;99.90;;;;;;5096247;28;20059;-65
2023/05/22 08:05:44;;;;;;;16.65;13.95;;;19.50;99.90;;;;;;5114269;28;20460;-64
2023/05/22 08:08:10;;;;;;;22.30;14.35;;;19.60;99.90;;;;;;5096632;28;20363;-64
2023/05/22 08:10:37;;;;;;;22.73;15.13;;;19.70;99.90;;;;;;5095991;28;20047;-66
2023/05/22 08:13:06;;;;;;;19.42;14.15;;;19.70;99.90;;;;;;5113955;28;20349;-64
2023/05/22 08:15:33;;;;;;;17.95;12.95;;;19.90;99.90;;;;;;5095300;28;20467;-65
2023/05/22 08:18:00;;;;;;;17.73;14.27;;;20.00;99.90;;;;;;5095845;28;20390;-64
2023/05/22 08:20:26;;;;;;;18.75;13.77;;;20.10;99.90;;;;;;5108828;27;20039;-65
2023/05/22 08:22:53;;;;;;;19.02;13.43;;;20.20;99.90;;;;;;5116467;27;20047;-64
2023/05/22 08:25:19;;;;;;;19.05;12.57;;;20.10;99.90;;;;;;5116025;27;20054;-64
2023/05/22 08:27:45;;;;;;;19.08;13.80;;;20.10;99.90;;;;;;5116137;27;20067;-67
2023/05/22 08:30:12;;;;;;;16.13;12.60;;;20.10;99.90;;;;;;5093976;28;20055;-67
2023/05/22 08:32:38;;;;;;;19.38;13.32;;;20.10;99.90;;;;;;5112281;28;20148;-64
2023/05/22 08:35:05;;;;;;;17.50;11.82;;;20.20;99.90;;;;;;5111879;28;20055;-65
2023/05/22 08:37:31;;;;;;;15.05;13.05;;;20.20;99.90;;;;;;5111898;28;20048;-63
2023/05/22 08:39:57;;;;;;;16.73;12.48;;;20.20;99.90;;;;;;5106481;28;20048;-66
2023/05/22 08:42:23;;;;;;;16.25;11.95;;;20.30;99.90;;;;;;5095023;28;20051;-65
2023/05/22 08:44:50;;;;;;;15.38;12.45;;;20.50;99.90;;;;;;5094965;28;20112;-64
2023/05/22 08:47:17;;;;;;;13.20;11.18;;;20.70;99.90;;;;;;5094842;28;20100;-65
2023/05/22 08:49:46;;;;;;;20.38;12.45;;;20.90;99.90;;;;;;5098569;28;20044;-64
2023/05/22 08:52:20;;;;;;;15.45;12.43;;;20.90;99.90;;;;;;5111550;28;20047;-67
2023/05/22 08:54:53;;;;;;;16.00;12.50;;;21.00;99.90;;;;;;5111872;28;20052;-65
2023/05/22 08:57:20;;;;;;;17.42;11.88;;;21.00;99.90;;;;;;5111869;28;20062;-64
2023/05/22 08:59:47;;;;;;;12.32;10.57;;;21.10;99.90;;;;;;5107503;28;20100;-64
2023/05/22 09:02:15;;;;;;;16.50;12.60;;;21.30;99.90;;;;;;5094572;28;20325;-65
2023/05/22 09:04:41;;;;;;;15.00;11.35;;;21.50;99.90;;;;;;5102227;28;20055;-64
2023/05/22 09:07:08;;;;;;;12.30;10.95;;;21.40;99.90;;;;;;5112274;28;20091;-65
2023/05/22 09:09:38;;;;;;;17.23;11.55;;;21.40;99.90;;;;;;5111338;28;20059;-65
2023/05/22 09:12:09;;;;;;;16.38;11.27;;;21.40;99.90;;;;;;5111622;28;20060;-65
2023/05/22 09:14:40;;;;;;;12.52;11.07;;;21.40;99.90;;;;;;5111714;28;20047;-64
2023/05/22 09:17:08;;;;;;;13.38;11.35;;;21.30;99.90;;;;;;5112339;28;20051;-65
2023/05/22 09:19:34;;;;;;;15.63;12.18;;;21.40;99.90;;;;;;5109165;28;20077;-64
2023/05/22 09:22:05;;;;;;;14.90;12.02;;;21.50;99.90;;;;;;5094870;28;20480;-64
2023/05/22 09:24:37;;;;;;;20.05;11.57;;;21.50;99.90;;;;;;5094882;28;20044;-66
2023/05/22 09:27:08;;;;;;;16.25;11.88;;;21.60;99.90;;;;;;5095217;28;20101;-64
2023/05/22 09:29:48;;;;;;;16.52;12.82;;;21.70;99.90;;;;;;5095350;28;20056;-64
2023/05/22 09:32:16;;;;;;;16.00;11.98;;;21.80;99.90;;;;;;5094810;28;20062;-64
2023/05/22 09:34:43;;;;;;;16.48;12.35;;;21.80;99.90;;;;;;5077695;28;20052;-66
2023/05/22 09:37:11;;;;;;;14.35;12.85;;;21.80;99.90;;;;;;5095010;28;20070;-65
2023/05/22 09:39:40;;;;;;;13.40;11.90;;;21.80;99.90;;;;;;5096665;28;20094;-66
2023/05/22 09:42:11;;;;;;;17.38;11.60;;;21.90;99.90;;;;;;5111428;28;20047;-64
2023/05/22 09:44:38;;;;;;;15.02;13.35;;;22.10;99.90;;;;;;5111704;28;20052;-64
2023/05/22 09:47:08;;;;;;;19.23;13.27;;;22.10;99.90;;;;;;5112180;28;20048;-64
2023/05/22 09:49:39;;;;;;;14.95;12.63;;;22.20;99.90;;;;;;5109219;28;20047;-66
2023/05/22 09:52:07;;;;;;;14.45;12.95;;;22.30;99.90;;;;;;5094514;28;20394;-65
2023/05/22 09:54:34;;;;;;;16.23;12.93;;;22.40;99.90;;;;;;5094325;28;20048;-65
2023/05/22 09:57:05;;;;;;;18.25;14.15;;;22.60;99.90;;;;;;5094612;28;20116;-65
2023/05/22 09:59:33;;;;;;;17.63;13.77;;;22.50;99.90;;;;;;5095439;28;20083;-65
2023/05/22 10:02:00;;;;;;;15.48;13.77;;;22.50;99.90;;;;;;5110868;28;20055;-65
2023/05/22 10:04:30;;;;;;;15.70;12.95;;;22.70;99.90;;;;;;5105423;28;20043;-65
2023/05/22 10:06:58;;;;;;;15.18;13.60;;;22.70;99.90;;;;;;5094680;28;20047;-64
2023/05/22 10:09:32;;;;;;;17.25;13.40;;;22.90;99.90;;;;;;5095236;28;20044;-65
2023/05/22 10:12:04;;;;;;;17.45;14.07;;;23.00;99.90;;;;;;5094917;28;20051;-64
2023/05/22 10:14:33;;;;;;;16.42;13.32;;;23.00;99.90;;;;;;5111132;28;20063;-64
2023/05/22 10:17:03;;;;;;;16.33;13.18;;;23.10;99.90;;;;;;5111340;28;20059;-64
2023/05/22 10:19:31;;;;;;;18.48;16.52;;;23.20;99.90;;;;;;5109849;28;20394;-65
2023/05/22 10:22:00;;;;;;;18.30;15.07;;;23.30;99.90;;;;;;5095845;28;20052;-64
2023/05/22 10:24:27;;;;;;;16.23;14.43;;;23.30;99.90;;;;;;5098011;28;20418;-66
2023/05/22 10:26:54;;;;;;;18.17;16.35;;;23.30;99.90;;;;;;5097515;28;20044;-65
2023/05/22 10:29:34;;;;;;;17.63;14.75;;;23.40;99.90;;;;;;5080498;28;20149;-66
2023/05/22 10:32:18;;;;;;;17.60;15.75;;;23.80;99.90;;;;;;5081162;28;20052;-65
2023/05/22 10:35:00;;;;;;;19.80;14.65;;;23.80;99.90;;;;;;5097807;28;20048;-65
2023/05/22 10:37:35;;;;;;;22.35;15.65;;;23.70;99.90;;;;;;5098050;28;20113;-65
2023/05/22 10:40:11;;;;;;;16.80;14.90;;;23.70;99.90;;;;;;5102823;28;20050;-66
2023/05/22 10:42:37;;;;;;;18.75;16.70;;;23.90;99.90;;;;;;5114762;28;20341;-64
2023/05/22 10:45:06;;;;;;;18.30;15.40;;;24.00;99.90;;;;;;5112992;28;20050;-63
2023/05/22 10:47:33;;;;;;;17.33;14.82;;;24.10;99.90;;;;;;5097573;28;20422;-67
2023/05/22 10:50:06;;;;;;;20.23;15.73;;;24.00;99.90;;;;;;5102205;28;20476;-64
2023/05/22 10:52:33;;;;;;;18.20;14.45;;;24.20;99.90;;;;;;5114117;28;20059;-68
2023/05/22 10:55:00;;;;;;;19.15;16.17;;;24.10;99.90;;;;;;5114232;28;20668;-64
2023/05/22 10:57:33;;;;;;;16.85;15.18;;;24.20;99.90;;;;;;5097282;28;20048;-64
2023/05/22 11:00:11;;;;;;;17.15;14.57;;;24.30;99.90;;;;;;5092135;28;20043;-63
2023/05/22 11:02:43;;;;;;;16.67;14.98;;;24.40;99.90;;;;;;5097287;28;20051;-63
2023/05/22 11:05:20;;;;;;;17.92;14.43;;;24.30;99.90;;;;;;5108900;28;20112;-65
2023/05/22 11:07:47;;;;;;;21.90;15.98;;;24.40;99.90;;;;;;5114028;28;20043;-64
2023/05/22 11:10:13;;;;;;;20.45;16.05;;;24.40;99.90;;;;;;5107323;28;20130;-66
2023/05/22 11:12:40;;;;;;;17.60;15.75;;;24.60;99.90;;;;;;5097228;28;20050;-65
2023/05/22 11:15:08;;;;;;;16.88;14.82;;;24.70;99.90;;;;;;5097174;28;20044;-64
2023/05/22 11:17:50;;;;;;;18.23;14.85;;;25.00;99.90;;;;;;5097066;28;20047;-62
2023/05/22 11:20:24;;;;;;;17.80;15.45;;;25.20;99.90;;;;;;5103480;28;20043;-63
2023/05/22 11:23:06;;;;;;;17.77;14.73;;;25.40;99.90;;;;;;5114032;28;20043;-65
2023/05/22 11:25:35;;;;;;;16.60;14.45;;;25.40;99.90;;;;;;5096676;28;20078;-65
2023/05/22 11:28:05;;;;;;;18.95;14.43;;;25.50;99.90;;;;;;5096462;28;20047;-64
2023/05/22 11:30:33;;;;;;;19.45;16.15;;;25.70;99.90;;;;;;5095666;28;20516;-64
2023/05/22 11:33:00;;;;;;;20.55;14.95;;;25.70;99.90;;;;;;5112638;28;20048;-61
2023/05/22 11:35:27;;;;;;;18.98;14.13;;;25.60;99.90;;;;;;5113354;28;20051;-62
2023/05/22 11:37:55;;;;;;;17.48;15.07;;;25.50;99.90;;;;;;5096715;28;20146;-63
2023/05/22 11:40:25;;;;;;;17.00;15.30;;;25.60;99.90;;;;;;5112597;28;20424;-63
2023/05/22 11:42:52;;;;;;;16.88;15.15;;;25.70;99.90;;;;;;5114312;28;20054;-64
2023/05/22 11:45:19;;;;;;;20.00;14.85;;;25.50;99.90;;;;;;5079164;28;20047;-62
2023/05/22 11:47:45;;;;;;;17.75;14.75;;;25.70;99.90;;;;;;5079522;28;20039;-62
2023/05/22 11:50:12;;;;;;;17.25;15.43;;;25.70;99.90;;;;;;5096390;28;20062;-66
2023/05/22 11:52:40;;;;;;;18.20;15.13;;;25.80;99.90;;;;;;5096695;28;20051;-62
2023/05/22 11:55:10;;;;;;;16.23;13.90;;;25.80;99.90;;;;;;5079340;28;20047;-62
2023/05/22 11:57:37;;;;;;;15.98;14.32;;;26.00;99.90;;;;;;5096661;28;20058;-62
2023/05/22 12:00:06;;;;;;;16.60;14.52;;;25.90;99.90;;;;;;5079176;28;20044;-62
2023/05/22 12:02:33;;;;;;;14.63;13.13;;;26.00;99.90;;;;;;5096406;28;20122;-65
2023/05/22 12:05:00;;;;;;;16.88;14.50;;;26.00;99.90;;;;;;5095737;28;20108;-62
2023/05/22 12:07:27;;;;;;;17.73;13.50;;;26.00;99.90;;;;;;5096017;28;20120;-62
2023/05/22 12:09:57;;;;;;;14.18;12.73;;;26.10;99.90;;;;;;5095823;28;20048;-62
2023/05/22 12:12:24;;;;;;;13.70;12.23;;;26.20;99.90;;;;;;5095565;28;20047;-62
2023/05/22 12:14:52;;;;;;;15.15;13.35;;;26.10;99.90;;;;;;5095797;28;20058;-64
2023/05/22 12:17:18;;;;;;;13.10;11.68;;;25.90;99.90;;;;;;5095665;28;20051;-62
2023/05/22 12:19:48;;;;;;;16.00;13.98;;;25.70;99.90;;;;;;5095160;28;20139;-64
2023/05/22 12:22:14;;;;;;;13.77;12.35;;;25.70;99.90;;;;;;5111473;28;20048;-64
2023/05/22 12:24:47;;;;;;;15.68;14.00;;;25.60;99.90;;;;;;5112831;28;20456;-61
2023/05/22 12:27:14;;;;;;;15.48;13.88;;;25.60;99.90;;;;;;5112497;28;20043;-65
2023/05/22 12:29:42;;;;;;;16.50;14.20;;;25.60;99.90;;;;;;5110982;28;20062;-62
2023/05/22 12:32:09;;;;;;;18.25;14.20;;;25.50;99.90;;;;;;5112641;28;20062;-65